createdAt,value
2022-12-15T00:02:40.865Z,3.04
2022-12-15T00:05:27.816Z,3.32
2022-12-15T00:08:13.928Z,3.60
2022-12-15T00:11:00.191Z,3.40
2022-12-15T00:13:46.088Z,3.34
2022-12-15T00:16:32.674Z,3.44
2022-12-15T00:19:18.539Z,3.49
2022-12-15T00:22:05.133Z,3.45
2022-12-15T00:24:51.342Z,3.32
2022-12-15T00:27:37.891Z,3.49
2022-12-15T00:30:25.327Z,3.45
2022-12-15T00:33:11.742Z,3.24
2022-12-15T00:35:57.561Z,3.41
2022-12-15T00:38:41.610Z,3.24
2022-12-15T00:41:09.500Z,3.48
2022-12-15T00:43:37.751Z,3.38
2022-12-15T00:46:24.281Z,3.33
2022-12-15T00:48:52.109Z,3.25
2022-12-15T00:51:19.784Z,3.34
2022-12-15T00:54:06.387Z,3.02
2022-12-15T00:56:54.384Z,2.50
2022-12-15T00:59:40.610Z,2.97
2022-12-15T01:02:26.726Z,3.17
2022-12-15T01:05:13.118Z,3.20
2022-12-15T01:07:59.485Z,3.55
2022-12-15T01:10:45.824Z,3.60
2022-12-15T01:13:32.977Z,3.44
2022-12-15T01:16:19.558Z,3.33
2022-12-15T01:19:06.914Z,3.41
2022-12-15T01:21:34.261Z,3.03
2022-12-15T01:24:01.909Z,3.45
2022-12-15T01:26:29.256Z,3.35
2022-12-15T01:28:58.699Z,3.49
2022-12-15T01:31:26.398Z,3.67
2022-12-15T01:33:54.914Z,3.45
2022-12-15T01:36:22.317Z,3.41
2022-12-15T01:38:54.057Z,3.72
2022-12-15T01:41:22.537Z,3.66
2022-12-15T01:43:50.226Z,3.47
2022-12-15T01:46:19.503Z,3.79
2022-12-15T01:48:48.332Z,3.79
2022-12-15T01:51:31.185Z,3.87
2022-12-15T01:54:03.884Z,3.69
2022-12-15T01:56:37.668Z,3.30
2022-12-15T01:59:08.139Z,3.64
2022-12-15T02:01:36.128Z,3.64
2022-12-15T02:04:04.023Z,3.52
2022-12-15T02:06:31.813Z,3.30
2022-12-15T02:09:00.159Z,3.56
2022-12-15T02:12:21.445Z,3.55
2022-12-15T02:15:09.415Z,3.91
2022-12-15T02:18:07.432Z,3.90
2022-12-15T02:20:59.599Z,3.12
2022-12-15T02:23:51.254Z,3.46
2022-12-15T02:26:42.690Z,3.48
2022-12-15T02:29:37.579Z,3.56
2022-12-15T02:32:22.235Z,2.85
2022-12-15T02:34:57.864Z,2.89
2022-12-15T02:37:31.331Z,3.45
2022-12-15T02:39:58.982Z,3.81
2022-12-15T02:42:29.168Z,3.24
2022-12-15T02:45:07.290Z,3.18
2022-12-15T02:47:57.119Z,3.61
2022-12-15T02:51:05.934Z,2.51
2022-12-15T02:54:07.556Z,2.82
2022-12-15T02:56:44.284Z,3.46
2022-12-15T02:59:24.447Z,3.08
2022-12-15T03:01:55.632Z,3.47
2022-12-15T03:04:23.524Z,3.70
2022-12-15T03:07:01.134Z,3.93
2022-12-15T03:09:29.126Z,3.65
2022-12-15T03:11:56.660Z,4.03
2022-12-15T03:14:25.556Z,3.92
2022-12-15T03:16:53.994Z,3.87
2022-12-15T03:19:21.425Z,4.19
2022-12-15T03:21:48.792Z,4.37
2022-12-15T03:24:16.431Z,4.44
2022-12-15T03:26:44.215Z,3.83
2022-12-15T03:29:11.540Z,3.84
2022-12-15T03:31:39.190Z,3.75
2022-12-15T03:34:06.554Z,2.67
2022-12-15T03:36:34.097Z,2.47
2022-12-15T03:39:01.740Z,1.95
2022-12-15T03:41:29.164Z,1.83
2022-12-15T03:43:56.514Z,1.89
2022-12-15T03:46:24.213Z,1.53
2022-12-15T03:48:51.521Z,1.33
2022-12-15T03:51:19.241Z,1.77
2022-12-15T03:53:49.908Z,1.66
2022-12-15T03:56:17.887Z,1.83
2022-12-15T03:58:45.274Z,1.93
2022-12-15T04:01:29.463Z,1.82
2022-12-15T04:04:00.863Z,2.20
2022-12-15T04:06:30.113Z,2.23
2022-12-15T04:08:58.715Z,2.27
2022-12-15T04:11:26.107Z,2.65
2022-12-15T04:13:53.484Z,2.29
2022-12-15T04:16:21.296Z,2.40
2022-12-15T04:19:11.560Z,1.26
2022-12-15T04:21:39.212Z,0.92
2022-12-15T04:24:25.594Z,0.47
2022-12-15T04:27:11.647Z,-0.01
2022-12-15T04:29:57.593Z,0.19
2022-12-15T04:32:43.748Z,0.33
2022-12-15T04:35:30.255Z,0.39
2022-12-15T04:38:16.776Z,0.18
2022-12-15T04:41:02.760Z,0.78
2022-12-15T04:43:48.776Z,0.97
2022-12-15T04:46:34.918Z,1.34
2022-12-15T04:49:21.047Z,0.93
2022-12-15T04:52:06.860Z,1.10
2022-12-15T04:54:53.504Z,1.91
2022-12-15T04:57:39.452Z,2.34
2022-12-15T05:00:26.250Z,2.52
2022-12-15T05:03:17.948Z,2.68
2022-12-15T05:06:04.399Z,2.73
2022-12-15T05:08:50.517Z,2.64
2022-12-15T05:11:36.884Z,2.36
2022-12-15T05:14:22.869Z,2.70
2022-12-15T05:17:08.951Z,2.72
2022-12-15T05:19:55.085Z,2.71
2022-12-15T05:22:41.499Z,2.75
2022-12-15T05:25:27.474Z,2.47
2022-12-15T05:28:13.821Z,2.55
2022-12-15T05:30:59.807Z,2.24
2022-12-15T05:33:27.726Z,3.05
2022-12-15T05:35:58.301Z,2.63
2022-12-15T05:38:25.769Z,2.56
2022-12-15T05:40:53.401Z,2.68
2022-12-15T05:43:26.223Z,2.58
2022-12-15T05:45:54.308Z,2.65
2022-12-15T05:48:21.718Z,2.68
2022-12-15T05:50:50.570Z,2.83
2022-12-15T05:53:18.241Z,2.81
2022-12-15T05:55:45.581Z,2.87
2022-12-15T05:58:13.006Z,3.00
2022-12-15T06:00:40.705Z,2.93
2022-12-15T06:03:08.375Z,2.90
2022-12-15T06:05:35.791Z,2.92
2022-12-15T06:08:03.137Z,3.08
2022-12-15T06:10:30.809Z,2.85
2022-12-15T06:12:58.170Z,2.85
2022-12-15T06:15:25.535Z,3.20
2022-12-15T06:17:55.782Z,3.05
2022-12-15T06:20:23.169Z,2.20
2022-12-15T06:22:50.523Z,2.44
2022-12-15T06:25:18.167Z,3.20
2022-12-15T06:27:45.528Z,3.18
2022-12-15T06:30:13.548Z,3.04
2022-12-15T06:32:41.307Z,3.28
2022-12-15T06:35:08.681Z,3.77
2022-12-15T06:37:36.066Z,3.60
2022-12-15T06:40:03.955Z,3.40
2022-12-15T06:42:31.307Z,3.22
2022-12-15T06:44:58.693Z,3.22
2022-12-15T06:47:27.114Z,2.90
2022-12-15T06:49:55.392Z,3.27
2022-12-15T06:52:22.759Z,3.22
2022-12-15T06:54:50.556Z,3.47
2022-12-15T06:57:17.938Z,3.34
2022-12-15T06:59:45.416Z,3.29
2022-12-15T07:02:22.458Z,3.33
2022-12-15T07:04:53.054Z,2.92
2022-12-15T07:07:20.857Z,3.41
2022-12-15T07:09:48.307Z,3.27
2022-12-15T07:12:15.644Z,3.30
2022-12-15T07:14:44.241Z,2.74
2022-12-15T07:17:13.830Z,2.34
2022-12-15T07:19:41.384Z,2.66
2022-12-15T07:22:09.491Z,3.14
2022-12-15T07:24:37.091Z,3.42
2022-12-15T07:27:04.547Z,3.81
2022-12-15T07:29:32.269Z,3.85
2022-12-15T07:32:01.126Z,3.69
2022-12-15T07:34:28.556Z,3.31
2022-12-15T07:36:56.210Z,3.77
2022-12-15T07:39:24.530Z,3.63
2022-12-15T07:41:52.002Z,3.64
2022-12-15T07:44:19.824Z,3.87
2022-12-15T07:46:49.356Z,3.78
2022-12-15T07:49:17.740Z,4.02
2022-12-15T07:51:45.380Z,3.78
2022-12-15T07:54:13.802Z,3.90
2022-12-15T07:56:41.375Z,4.06
2022-12-15T07:59:09.899Z,4.25
2022-12-15T08:01:37.612Z,4.33
2022-12-15T08:04:06.159Z,3.98
2022-12-15T08:06:34.114Z,4.21
2022-12-15T08:09:01.849Z,4.36
2022-12-15T08:11:34.078Z,4.51
2022-12-15T08:14:03.670Z,4.43
2022-12-15T08:16:34.533Z,4.56
2022-12-15T08:19:03.660Z,4.39
2022-12-15T08:21:31.799Z,4.80
2022-12-15T08:24:00.992Z,4.91
2022-12-15T08:26:30.593Z,4.95
2022-12-15T08:29:31.824Z,5.05
2022-12-15T08:31:51.742Z,5.00
2022-12-15T08:34:19.679Z,4.93
2022-12-15T08:36:47.119Z,4.59
2022-12-15T08:39:14.484Z,4.71
2022-12-15T08:41:42.469Z,5.05
2022-12-15T08:44:10.101Z,5.03
2022-12-15T08:46:37.642Z,4.76
2022-12-15T08:49:05.454Z,4.98
2022-12-15T08:51:33.433Z,5.23
2022-12-15T08:54:01.627Z,4.80
2022-12-15T08:56:29.413Z,5.03
2022-12-15T08:59:01.645Z,5.07
2022-12-15T09:01:32.351Z,5.12
2022-12-15T09:04:01.548Z,5.04
2022-12-15T09:06:31.525Z,5.35
2022-12-15T09:09:00.968Z,5.40
2022-12-15T09:11:29.791Z,5.13
2022-12-15T09:13:57.665Z,5.22
2022-12-15T09:16:25.660Z,5.21
2022-12-15T09:18:56.631Z,4.96
2022-12-15T09:21:26.700Z,5.25
2022-12-15T09:23:57.703Z,5.10
2022-12-15T09:26:25.080Z,5.46
2022-12-15T09:28:53.128Z,5.19
2022-12-15T09:31:23.914Z,5.07
2022-12-15T09:33:53.108Z,5.08
2022-12-15T09:36:21.145Z,5.28
2022-12-15T09:38:48.849Z,4.98
2022-12-15T09:41:28.046Z,5.34
2022-12-15T09:43:58.694Z,5.18
2022-12-15T09:46:54.460Z,5.36
2022-12-15T09:49:55.591Z,5.07
2022-12-15T09:52:26.673Z,5.16
2022-12-15T09:54:54.787Z,5.50
2022-12-15T09:57:41.044Z,5.46
2022-12-15T10:00:15.671Z,5.27
2022-12-15T10:02:55.991Z,5.39
2022-12-15T10:05:50.110Z,5.51
2022-12-15T10:08:17.198Z,5.53
2022-12-15T10:10:57.859Z,5.30
2022-12-15T10:13:38.377Z,5.27
2022-12-15T10:16:16.967Z,5.35
2022-12-15T10:19:07.505Z,5.39
2022-12-15T10:21:36.423Z,5.21
2022-12-15T10:24:26.633Z,5.60
2022-12-15T10:27:18.570Z,5.51
2022-12-15T10:30:02.412Z,5.30
2022-12-15T10:32:51.448Z,5.03
2022-12-15T10:35:28.637Z,4.53
2022-12-15T10:38:04.334Z,5.04
2022-12-15T10:40:58.852Z,5.39
2022-12-15T10:43:37.186Z,5.64
2022-12-15T10:46:25.889Z,5.74
2022-12-15T10:49:00.724Z,5.68
2022-12-15T10:51:33.392Z,5.63
2022-12-15T10:54:00.624Z,5.85
2022-12-15T10:56:33.750Z,5.94
2022-12-15T10:59:30.798Z,6.02
2022-12-15T11:02:23.801Z,5.91
2022-12-15T11:04:59.751Z,5.89
2022-12-15T11:07:33.621Z,5.81
2022-12-15T11:10:08.241Z,6.17
2022-12-15T11:12:52.267Z,6.20
2022-12-15T11:15:22.705Z,5.92
2022-12-15T11:17:56.445Z,6.01
2022-12-15T11:20:29.281Z,5.94
2022-12-15T11:23:09.458Z,5.56
2022-12-15T11:25:42.245Z,5.66
2022-12-15T11:28:15.720Z,5.94
2022-12-15T11:30:46.649Z,5.85
2022-12-15T11:33:14.613Z,6.15
2022-12-15T11:36:20.819Z,6.18
2022-12-15T11:39:13.501Z,6.14
2022-12-15T11:41:56.556Z,6.25
2022-12-15T11:44:35.328Z,6.32
2022-12-15T11:47:20.742Z,6.33
2022-12-15T11:49:53.191Z,6.20
2022-12-15T11:52:39.776Z,6.33
2022-12-15T11:55:13.657Z,6.27
2022-12-15T11:58:19.334Z,5.80
2022-12-15T12:01:23.463Z,6.20
2022-12-15T12:04:20.827Z,6.10
2022-12-15T12:06:57.451Z,6.60
2022-12-15T12:09:35.265Z,6.27
2022-12-15T12:12:29.530Z,6.39
2022-12-15T12:15:12.996Z,6.50
2022-12-15T12:17:41.748Z,6.16
2022-12-15T12:20:17.836Z,6.35
2022-12-15T12:23:06.108Z,6.22
2022-12-15T12:25:40.205Z,6.48
2022-12-15T12:28:17.435Z,6.38
2022-12-15T12:30:48.742Z,6.70
2022-12-15T12:33:36.884Z,6.22
2022-12-15T12:36:13.004Z,6.41
2022-12-15T12:38:46.317Z,6.28
2022-12-15T12:41:24.683Z,6.22
2022-12-15T12:43:55.711Z,6.15
2022-12-15T12:46:27.683Z,6.27
2022-12-15T12:48:57.657Z,6.17
2022-12-15T12:51:25.586Z,6.25
2022-12-15T12:53:53.414Z,6.17
2022-12-15T12:56:36.977Z,6.10
2022-12-15T12:59:26.364Z,6.19
2022-12-15T13:01:56.256Z,6.36
2022-12-15T13:04:30.216Z,6.10
2022-12-15T13:07:01.468Z,6.35
2022-12-15T13:09:43.103Z,6.45
2022-12-15T13:15:30.932Z,6.06
2022-12-15T13:18:06.700Z,6.18
2022-12-15T13:20:36.874Z,6.23
2022-12-15T13:23:16.608Z,6.14
2022-12-15T13:25:51.858Z,6.12
2022-12-15T13:28:27.195Z,6.19
2022-12-15T13:31:23.442Z,6.02
2022-12-15T13:33:51.324Z,6.25
2022-12-15T13:36:37.352Z,5.99
2022-12-15T13:39:24.711Z,5.95
2022-12-15T13:42:32.583Z,5.94
2022-12-15T13:44:51.868Z,6.19
2022-12-15T13:47:25.228Z,5.70
2022-12-15T13:53:17.780Z,5.69
2022-12-15T13:55:39.227Z,5.79
2022-12-15T13:58:16.495Z,5.97
2022-12-15T14:00:55.184Z,5.67
2022-12-15T14:03:23.997Z,5.57
2022-12-15T14:05:56.921Z,5.53
2022-12-15T14:08:28.925Z,5.52
2022-12-15T14:10:59.088Z,5.53
2022-12-15T14:13:32.145Z,5.62
2022-12-15T14:16:17.902Z,5.71
2022-12-15T14:18:45.922Z,5.70
2022-12-15T14:21:23.006Z,5.52
2022-12-15T14:24:36.517Z,5.74
2022-12-15T14:26:38.402Z,5.60
2022-12-15T14:29:06.486Z,5.70
2022-12-15T14:31:33.939Z,5.51
2022-12-15T14:34:08.083Z,5.77
2022-12-15T14:36:36.122Z,5.61
2022-12-15T14:39:06.958Z,5.67
2022-12-15T14:41:40.713Z,5.68
2022-12-15T14:44:38.122Z,5.75
2022-12-15T14:47:09.005Z,5.54
2022-12-15T14:49:41.340Z,5.58
2022-12-15T14:52:28.632Z,5.51
2022-12-15T14:54:58.001Z,5.50
2022-12-15T14:57:41.587Z,5.63
2022-12-15T15:00:32.155Z,5.52
2022-12-15T15:03:09.801Z,5.75
2022-12-15T15:03:12.979Z,6.19
2022-12-15T15:03:19.070Z,6.07
2022-12-15T15:05:50.330Z,5.82
2022-12-15T15:08:33.943Z,5.65
2022-12-15T15:11:29.810Z,6.05
2022-12-15T15:14:00.550Z,5.72
2022-12-15T15:16:28.518Z,5.76
2022-12-15T15:18:56.487Z,5.54
2022-12-15T15:21:26.130Z,5.51
2022-12-15T15:24:04.115Z,4.97
2022-12-15T15:26:31.714Z,5.39
2022-12-15T15:28:59.559Z,5.20
2022-12-15T15:31:41.344Z,5.42
2022-12-15T15:34:09.628Z,5.01
2022-12-15T15:36:38.589Z,5.14
2022-12-15T15:39:15.729Z,5.21
2022-12-15T15:41:43.426Z,5.24
2022-12-15T15:44:15.497Z,5.02
2022-12-15T15:46:52.105Z,5.07
2022-12-15T15:49:20.830Z,5.11
2022-12-15T15:51:49.653Z,5.08
2022-12-15T15:54:19.085Z,4.84
2022-12-15T15:56:46.446Z,5.19
2022-12-15T15:59:16.411Z,4.98
2022-12-15T16:01:46.570Z,5.02
2022-12-15T16:04:14.800Z,4.78
2022-12-15T16:06:47.000Z,4.68
2022-12-15T16:09:16.809Z,4.34
2022-12-15T16:11:45.113Z,4.59
2022-12-15T16:14:14.240Z,4.48
2022-12-15T16:16:42.153Z,4.44
2022-12-15T16:19:09.688Z,4.59
2022-12-15T16:21:37.276Z,4.11
2022-12-15T16:24:09.076Z,4.29
2022-12-15T16:26:38.913Z,4.35
2022-12-15T16:29:14.594Z,4.31
2022-12-15T16:31:45.435Z,4.46
2022-12-15T16:34:19.246Z,4.06
2022-12-15T16:36:46.972Z,4.58
2022-12-15T16:39:26.673Z,4.57
2022-12-15T16:41:55.204Z,4.50
2022-12-15T16:44:24.492Z,4.28
2022-12-15T16:46:52.395Z,4.36
2022-12-15T16:49:20.445Z,4.61
2022-12-15T16:51:50.848Z,4.30
2022-12-15T16:54:21.694Z,4.44
2022-12-15T16:56:49.713Z,4.85
2022-12-15T16:59:35.284Z,5.09
2022-12-15T17:02:28.468Z,4.62
2022-12-15T17:04:56.283Z,4.70
2022-12-15T17:07:25.367Z,4.48
2022-12-15T17:09:52.876Z,5.13
2022-12-15T17:12:20.351Z,4.87
2022-12-15T17:14:48.376Z,4.99
2022-12-15T17:17:17.653Z,4.72
2022-12-15T17:20:11.822Z,4.76
2022-12-15T17:22:33.547Z,4.62
2022-12-15T17:25:01.566Z,4.60
2022-12-15T17:27:29.836Z,4.42
2022-12-15T17:29:58.487Z,4.31
2022-12-15T17:32:28.883Z,4.23
2022-12-15T17:34:56.672Z,4.12
2022-12-15T17:37:30.550Z,4.26
2022-12-15T17:40:04.454Z,4.46
2022-12-15T17:42:32.874Z,4.77
2022-12-15T17:45:00.518Z,4.66
2022-12-15T17:47:30.653Z,4.94
2022-12-15T17:49:58.907Z,4.44
2022-12-15T17:52:29.248Z,4.90
2022-12-15T17:54:58.208Z,4.39
2022-12-15T17:57:26.200Z,4.20
2022-12-15T17:59:53.764Z,4.31
2022-12-15T18:02:21.240Z,4.40
2022-12-15T18:04:49.572Z,4.65
2022-12-15T18:07:22.150Z,4.03
2022-12-15T18:09:51.689Z,4.11
2022-12-15T18:12:26.343Z,4.17
2022-12-15T18:14:55.761Z,4.56
2022-12-15T18:17:24.626Z,4.13
2022-12-15T18:19:56.429Z,4.10
2022-12-15T18:22:24.910Z,4.42
2022-12-15T18:24:54.099Z,4.25
2022-12-15T18:27:30.868Z,4.71
2022-12-15T18:29:59.009Z,4.61
2022-12-15T18:32:27.558Z,5.04
2022-12-15T18:34:55.452Z,4.74
2022-12-15T18:37:25.384Z,4.47
2022-12-15T18:39:53.164Z,4.60
2022-12-15T18:42:21.697Z,4.31
2022-12-15T18:44:51.479Z,4.15
2022-12-15T18:47:21.817Z,4.36
2022-12-15T18:49:50.722Z,4.41
2022-12-15T18:52:21.082Z,4.51
2022-12-15T18:54:50.322Z,4.21
2022-12-15T18:57:28.055Z,4.40
2022-12-15T19:00:01.302Z,4.10
2022-12-15T19:02:29.627Z,4.43
2022-12-15T19:04:57.612Z,4.35
2022-12-15T19:07:25.663Z,4.40
2022-12-15T19:09:53.825Z,4.13
2022-12-15T19:12:23.020Z,4.12
2022-12-15T19:14:51.855Z,4.48
2022-12-15T19:17:40.057Z,4.12
2022-12-15T19:20:35.797Z,4.25
2022-12-15T19:23:23.234Z,4.16
2022-12-15T19:25:51.906Z,4.07
2022-12-15T19:28:24.024Z,4.10
2022-12-15T19:30:52.348Z,4.31
2022-12-15T19:33:20.899Z,4.10
2022-12-15T19:35:51.201Z,4.34
2022-12-15T19:38:25.285Z,4.20
2022-12-15T19:40:54.804Z,4.39
2022-12-15T19:43:25.735Z,4.44
2022-12-15T19:45:54.887Z,4.85
2022-12-15T19:48:24.571Z,4.89
2022-12-15T19:50:54.647Z,4.51
2022-12-15T19:53:25.916Z,4.10
2022-12-15T19:56:01.986Z,4.32
2022-12-15T19:58:33.519Z,4.42
2022-12-15T20:01:10.944Z,4.05
2022-12-15T20:03:39.403Z,3.98
2022-12-15T20:06:14.956Z,3.89
2022-12-15T20:08:46.402Z,4.04
2022-12-15T20:11:26.134Z,4.17
2022-12-15T20:13:56.642Z,3.90
2022-12-15T20:16:25.325Z,4.33
2022-12-15T20:18:55.477Z,4.18
2022-12-15T20:21:29.589Z,4.01
2022-12-15T20:24:05.307Z,4.31
2022-12-15T20:26:34.669Z,4.27
2022-12-15T20:29:05.497Z,4.22
2022-12-15T20:31:34.260Z,3.87
2022-12-15T20:34:03.249Z,3.69
2022-12-15T20:36:31.547Z,4.34
2022-12-15T20:38:59.264Z,4.12
2022-12-15T20:41:29.136Z,3.98
2022-12-15T20:43:58.999Z,4.08
2022-12-15T20:46:38.863Z,3.96
2022-12-15T20:49:19.857Z,4.09
2022-12-15T20:51:48.886Z,4.06
2022-12-15T20:54:22.275Z,4.00
2022-12-15T20:56:51.006Z,4.23
2022-12-15T20:59:18.915Z,4.28
2022-12-15T21:01:47.001Z,3.93
2022-12-15T21:04:26.250Z,4.15
2022-12-15T21:06:55.238Z,3.85
2022-12-15T21:09:23.883Z,3.66
2022-12-15T21:11:52.660Z,3.76
2022-12-15T21:14:23.870Z,4.11
2022-12-15T21:16:51.870Z,4.07
2022-12-15T21:19:21.306Z,4.29
2022-12-15T21:21:52.143Z,3.76
2022-12-15T21:24:23.902Z,3.71
2022-12-15T21:26:52.294Z,3.80
2022-12-15T21:29:22.353Z,4.08
2022-12-15T21:31:49.809Z,3.54
2022-12-15T21:34:17.168Z,3.91
2022-12-15T21:36:47.295Z,3.72
2022-12-15T21:39:29.533Z,3.45
2022-12-15T21:42:12.176Z,3.79
2022-12-15T21:44:39.573Z,3.92
2022-12-15T21:47:52.077Z,3.92
2022-12-15T21:50:19.736Z,4.06
2022-12-15T21:52:47.886Z,3.96
2022-12-15T21:55:16.956Z,3.92
2022-12-15T21:57:44.852Z,3.66
2022-12-15T22:00:15.000Z,3.49
2022-12-15T22:02:43.295Z,4.06
2022-12-15T22:05:22.681Z,3.78
2022-12-15T22:07:50.703Z,3.63
2022-12-15T22:10:19.313Z,3.58
2022-12-15T22:12:57.466Z,3.52
2022-12-15T22:15:28.940Z,3.66
2022-12-15T22:17:56.385Z,3.56
2022-12-15T22:20:24.584Z,3.70
2022-12-15T22:22:52.278Z,3.54
2022-12-15T22:25:26.091Z,3.78
2022-12-15T22:27:54.847Z,3.48
2022-12-15T22:30:24.273Z,3.82
2022-12-15T22:32:52.454Z,3.53
2022-12-15T22:35:23.870Z,3.83
2022-12-15T22:37:53.934Z,3.39
2022-12-15T22:40:23.718Z,3.57
2022-12-15T22:42:54.961Z,3.42
2022-12-15T22:45:24.107Z,3.46
2022-12-15T22:47:52.452Z,3.27
2022-12-15T22:50:23.647Z,3.76
2022-12-15T22:52:52.029Z,4.02
2022-12-15T22:55:20.904Z,3.96
2022-12-15T22:57:59.895Z,3.78
2022-12-15T23:00:27.635Z,3.85
2022-12-15T23:02:55.238Z,3.90
2022-12-15T23:05:22.788Z,3.97
2022-12-15T23:07:50.596Z,3.95
2022-12-15T23:10:38.818Z,3.77
2022-12-15T23:13:06.701Z,3.83
2022-12-15T23:15:52.666Z,3.80
2022-12-15T23:18:22.322Z,3.84
2022-12-15T23:20:51.592Z,3.79
2022-12-15T23:23:19.611Z,3.85
2022-12-15T23:25:47.275Z,3.83
2022-12-15T23:28:14.649Z,4.14
2022-12-15T23:30:42.276Z,4.33
2022-12-15T23:33:09.926Z,3.98
2022-12-15T23:35:40.643Z,4.10
2022-12-15T23:38:07.993Z,4.14
2022-12-15T23:40:36.282Z,4.03
2022-12-15T23:43:03.672Z,4.39
2022-12-15T23:45:31.056Z,4.67
2022-12-15T23:47:58.710Z,4.26
2022-12-15T23:50:26.094Z,4.22
2022-12-15T23:52:53.437Z,4.07
2022-12-15T23:55:22.376Z,3.86
2022-12-15T23:57:50.561Z,3.99
